sensor_id;sensor_type;location;lat;lon;timestamp;P1;durP1;ratioP1;P2;durP2;ratioP2
10880;SDS011;5493;48.884;8.338;2023-02-16T00:01:17;13.40;;;6.77;;
10880;SDS011;5493;48.884;8.338;2023-02-16T00:03:46;13.53;;;8.60;;
10880;SDS011;5493;48.884;8.338;2023-02-16T00:06:14;13.60;;;8.00;;
10880;SDS011;5493;48.884;8.338;2023-02-16T00:08:44;12.00;;;7.77;;
10880;SDS011;5493;48.884;8.338;2023-02-16T00:11:13;15.67;;;7.20;;
10880;SDS011;5493;48.884;8.338;2023-02-16T00:14:00;11.20;;;7.23;;
10880;SDS011;5493;48.884;8.338;2023-02-16T00:16:28;18.23;;;7.83;;
10880;SDS011;5493;48.884;8.338;2023-02-16T00:18:54;15.87;;;7.83;;
10880;SDS011;5493;48.884;8.338;2023-02-16T00:21:22;27.03;;;8.80;;
10880;SDS011;5493;48.884;8.338;2023-02-16T00:23:49;18.77;;;8.47;;
10880;SDS011;5493;48.884;8.338;2023-02-16T00:26:16;16.23;;;8.53;;
10880;SDS011;5493;48.884;8.338;2023-02-16T00:28:45;18.50;;;7.17;;
10880;SDS011;5493;48.884;8.338;2023-02-16T00:31:14;18.57;;;7.20;;
10880;SDS011;5493;48.884;8.338;2023-02-16T00:33:42;12.03;;;7.77;;
10880;SDS011;5493;48.884;8.338;2023-02-16T00:36:09;14.47;;;7.93;;
10880;SDS011;5493;48.884;8.338;2023-02-16T00:38:37;10.17;;;5.63;;
10880;SDS011;5493;48.884;8.338;2023-02-16T00:41:04;12.27;;;7.07;;
10880;SDS011;5493;48.884;8.338;2023-02-16T00:43:51;23.53;;;7.67;;
10880;SDS011;5493;48.884;8.338;2023-02-16T00:46:19;11.27;;;7.63;;
10880;SDS011;5493;48.884;8.338;2023-02-16T00:48:46;18.60;;;8.57;;
10880;SDS011;5493;48.884;8.338;2023-02-16T00:51:12;24.33;;;10.30;;
10880;SDS011;5493;48.884;8.338;2023-02-16T00:53:40;17.30;;;9.07;;
10880;SDS011;5493;48.884;8.338;2023-02-16T00:56:07;20.47;;;9.47;;
10880;SDS011;5493;48.884;8.338;2023-02-16T00:58:36;12.90;;;7.57;;
10880;SDS011;5493;48.884;8.338;2023-02-16T01:01:05;12.33;;;7.37;;
10880;SDS011;5493;48.884;8.338;2023-02-16T01:03:32;12.40;;;8.03;;
10880;SDS011;5493;48.884;8.338;2023-02-16T01:05:59;12.83;;;7.67;;
10880;SDS011;5493;48.884;8.338;2023-02-16T01:08:41;13.17;;;8.07;;
10880;SDS011;5493;48.884;8.338;2023-02-16T01:11:21;18.43;;;7.50;;
10880;SDS011;5493;48.884;8.338;2023-02-16T01:13:50;13.40;;;7.10;;
10880;SDS011;5493;48.884;8.338;2023-02-16T01:16:19;15.13;;;7.70;;
10880;SDS011;5493;48.884;8.338;2023-02-16T01:18:47;15.80;;;7.97;;
10880;SDS011;5493;48.884;8.338;2023-02-16T01:21:14;15.47;;;8.37;;
10880;SDS011;5493;48.884;8.338;2023-02-16T01:23:42;19.07;;;7.87;;
10880;SDS011;5493;48.884;8.338;2023-02-16T01:26:10;17.07;;;8.70;;
10880;SDS011;5493;48.884;8.338;2023-02-16T01:28:39;13.97;;;7.90;;
10880;SDS011;5493;48.884;8.338;2023-02-16T01:31:07;11.67;;;8.17;;
10880;SDS011;5493;48.884;8.338;2023-02-16T01:33:35;18.83;;;9.33;;
10880;SDS011;5493;48.884;8.338;2023-02-16T01:36:02;19.97;;;8.77;;
10880;SDS011;5493;48.884;8.338;2023-02-16T01:38:30;20.00;;;7.47;;
10880;SDS011;5493;48.884;8.338;2023-02-16T01:41:02;13.17;;;7.97;;
10880;SDS011;5493;48.884;8.338;2023-02-16T01:43:36;11.60;;;6.57;;
10880;SDS011;5493;48.884;8.338;2023-02-16T01:46:11;11.70;;;7.07;;
10880;SDS011;5493;48.884;8.338;2023-02-16T01:48:41;14.00;;;7.30;;
10880;SDS011;5493;48.884;8.338;2023-02-16T01:51:11;12.77;;;7.90;;
10880;SDS011;5493;48.884;8.338;2023-02-16T01:53:42;13.37;;;7.30;;
10880;SDS011;5493;48.884;8.338;2023-02-16T01:56:17;10.40;;;7.00;;
10880;SDS011;5493;48.884;8.338;2023-02-16T01:58:51;10.93;;;6.93;;
10880;SDS011;5493;48.884;8.338;2023-02-16T02:04:21;13.77;;;7.63;;
10880;SDS011;5493;48.884;8.338;2023-02-16T02:07:09;13.13;;;7.17;;
10880;SDS011;5493;48.884;8.338;2023-02-16T02:09:46;19.10;;;7.73;;
10880;SDS011;5493;48.884;8.338;2023-02-16T02:12:21;12.57;;;7.83;;
10880;SDS011;5493;48.884;8.338;2023-02-16T02:14:53;15.20;;;8.90;;
10880;SDS011;5493;48.884;8.338;2023-02-16T02:17:20;15.87;;;8.83;;
10880;SDS011;5493;48.884;8.338;2023-02-16T02:19:49;12.97;;;8.40;;
10880;SDS011;5493;48.884;8.338;2023-02-16T02:22:30;22.27;;;8.90;;
10880;SDS011;5493;48.884;8.338;2023-02-16T02:25:43;19.10;;;8.03;;
10880;SDS011;5493;48.884;8.338;2023-02-16T02:28:38;16.30;;;8.60;;
10880;SDS011;5493;48.884;8.338;2023-02-16T02:31:13;15.10;;;7.87;;
10880;SDS011;5493;48.884;8.338;2023-02-16T02:33:50;11.90;;;7.47;;
10880;SDS011;5493;48.884;8.338;2023-02-16T02:36:27;11.47;;;6.67;;
10880;SDS011;5493;48.884;8.338;2023-02-16T02:39:02;11.20;;;7.33;;
10880;SDS011;5493;48.884;8.338;2023-02-16T02:41:35;13.23;;;8.73;;
10880;SDS011;5493;48.884;8.338;2023-02-16T02:44:27;12.67;;;8.47;;
10880;SDS011;5493;48.884;8.338;2023-02-16T02:46:54;12.60;;;6.77;;
10880;SDS011;5493;48.884;8.338;2023-02-16T02:49:21;11.27;;;7.67;;
10880;SDS011;5493;48.884;8.338;2023-02-16T02:51:48;12.10;;;7.47;;
10880;SDS011;5493;48.884;8.338;2023-02-16T02:54:16;14.37;;;8.17;;
10880;SDS011;5493;48.884;8.338;2023-02-16T02:57:03;13.27;;;8.07;;
10880;SDS011;5493;48.884;8.338;2023-02-16T02:59:53;9.70;;;7.50;;
10880;SDS011;5493;48.884;8.338;2023-02-16T03:02:41;11.83;;;6.57;;
10880;SDS011;5493;48.884;8.338;2023-02-16T03:05:10;11.53;;;7.33;;
10880;SDS011;5493;48.884;8.338;2023-02-16T03:07:40;11.93;;;6.57;;
10880;SDS011;5493;48.884;8.338;2023-02-16T03:10:12;14.63;;;8.10;;
10880;SDS011;5493;48.884;8.338;2023-02-16T03:12:57;12.50;;;6.90;;
10880;SDS011;5493;48.884;8.338;2023-02-16T03:15:27;13.83;;;8.73;;
10880;SDS011;5493;48.884;8.338;2023-02-16T03:17:56;14.27;;;8.17;;
10880;SDS011;5493;48.884;8.338;2023-02-16T03:20:42;12.83;;;7.17;;
10880;SDS011;5493;48.884;8.338;2023-02-16T03:23:29;28.07;;;8.57;;
10880;SDS011;5493;48.884;8.338;2023-02-16T03:26:13;12.27;;;7.20;;
10880;SDS011;5493;48.884;8.338;2023-02-16T03:28:58;12.10;;;7.77;;
10880;SDS011;5493;48.884;8.338;2023-02-16T03:31:44;21.10;;;9.10;;
10880;SDS011;5493;48.884;8.338;2023-02-16T03:34:12;14.90;;;8.13;;
10880;SDS011;5493;48.884;8.338;2023-02-16T03:36:40;13.83;;;7.63;;
10880;SDS011;5493;48.884;8.338;2023-02-16T03:39:09;10.87;;;7.67;;
10880;SDS011;5493;48.884;8.338;2023-02-16T03:41:37;11.43;;;6.87;;
10880;SDS011;5493;48.884;8.338;2023-02-16T03:44:07;15.00;;;8.00;;
10880;SDS011;5493;48.884;8.338;2023-02-16T03:46:33;12.07;;;7.37;;
10880;SDS011;5493;48.884;8.338;2023-02-16T03:49:02;12.73;;;8.40;;
10880;SDS011;5493;48.884;8.338;2023-02-16T03:51:28;14.40;;;8.60;;
10880;SDS011;5493;48.884;8.338;2023-02-16T03:53:55;11.67;;;7.97;;
10880;SDS011;5493;48.884;8.338;2023-02-16T03:56:21;19.10;;;8.53;;
10880;SDS011;5493;48.884;8.338;2023-02-16T03:58:48;19.00;;;9.43;;
10880;SDS011;5493;48.884;8.338;2023-02-16T04:01:14;17.17;;;8.87;;
10880;SDS011;5493;48.884;8.338;2023-02-16T04:03:41;11.67;;;8.10;;
10880;SDS011;5493;48.884;8.338;2023-02-16T04:06:09;24.37;;;9.13;;
10880;SDS011;5493;48.884;8.338;2023-02-16T04:08:35;17.33;;;7.60;;
10880;SDS011;5493;48.884;8.338;2023-02-16T04:11:02;12.13;;;7.90;;
10880;SDS011;5493;48.884;8.338;2023-02-16T04:13:50;34.07;;;8.83;;
10880;SDS011;5493;48.884;8.338;2023-02-16T04:16:15;17.33;;;7.80;;
10880;SDS011;5493;48.884;8.338;2023-02-16T04:18:42;13.07;;;6.57;;
10880;SDS011;5493;48.884;8.338;2023-02-16T04:21:09;15.67;;;8.00;;
10880;SDS011;5493;48.884;8.338;2023-02-16T04:23:36;9.97;;;6.53;;
10880;SDS011;5493;48.884;8.338;2023-02-16T04:26:03;11.80;;;7.50;;
10880;SDS011;5493;48.884;8.338;2023-02-16T04:28:29;11.47;;;7.00;;
10880;SDS011;5493;48.884;8.338;2023-02-16T04:30:56;10.77;;;6.80;;
10880;SDS011;5493;48.884;8.338;2023-02-16T04:33:22;12.90;;;6.90;;
10880;SDS011;5493;48.884;8.338;2023-02-16T04:35:49;12.47;;;7.30;;
10880;SDS011;5493;48.884;8.338;2023-02-16T04:38:17;13.40;;;7.80;;
10880;SDS011;5493;48.884;8.338;2023-02-16T04:40:43;10.80;;;7.00;;
10880;SDS011;5493;48.884;8.338;2023-02-16T04:43:10;11.40;;;6.87;;
10880;SDS011;5493;48.884;8.338;2023-02-16T04:45:36;15.13;;;7.60;;
10880;SDS011;5493;48.884;8.338;2023-02-16T04:48:03;15.30;;;8.43;;
10880;SDS011;5493;48.884;8.338;2023-02-16T04:50:30;13.27;;;8.33;;
10880;SDS011;5493;48.884;8.338;2023-02-16T04:52:56;14.20;;;8.23;;
10880;SDS011;5493;48.884;8.338;2023-02-16T04:55:24;10.47;;;7.27;;
10880;SDS011;5493;48.884;8.338;2023-02-16T04:57:50;13.33;;;7.97;;
10880;SDS011;5493;48.884;8.338;2023-02-16T05:00:17;13.00;;;8.40;;
10880;SDS011;5493;48.884;8.338;2023-02-16T05:02:45;39.13;;;9.10;;
10880;SDS011;5493;48.884;8.338;2023-02-16T05:05:11;12.30;;;7.50;;
10880;SDS011;5493;48.884;8.338;2023-02-16T05:07:38;13.77;;;8.10;;
10880;SDS011;5493;48.884;8.338;2023-02-16T05:10:05;15.03;;;8.33;;
10880;SDS011;5493;48.884;8.338;2023-02-16T05:12:33;14.17;;;8.90;;
10880;SDS011;5493;48.884;8.338;2023-02-16T05:15:18;12.80;;;8.17;;
10880;SDS011;5493;48.884;8.338;2023-02-16T05:17:44;17.60;;;9.07;;
10880;SDS011;5493;48.884;8.338;2023-02-16T05:20:11;14.23;;;8.30;;
10880;SDS011;5493;48.884;8.338;2023-02-16T05:22:38;11.33;;;7.50;;
10880;SDS011;5493;48.884;8.338;2023-02-16T05:25:05;13.67;;;8.57;;
10880;SDS011;5493;48.884;8.338;2023-02-16T05:27:33;20.97;;;9.00;;
10880;SDS011;5493;48.884;8.338;2023-02-16T05:30:00;12.17;;;8.10;;
10880;SDS011;5493;48.884;8.338;2023-02-16T05:32:26;12.00;;;7.33;;
10880;SDS011;5493;48.884;8.338;2023-02-16T05:34:53;11.87;;;6.53;;
10880;SDS011;5493;48.884;8.338;2023-02-16T05:37:19;10.17;;;6.63;;
10880;SDS011;5493;48.884;8.338;2023-02-16T05:39:46;10.33;;;6.90;;
10880;SDS011;5493;48.884;8.338;2023-02-16T05:42:12;11.10;;;7.17;;
10880;SDS011;5493;48.884;8.338;2023-02-16T05:44:40;13.53;;;6.97;;
10880;SDS011;5493;48.884;8.338;2023-02-16T05:47:07;11.67;;;6.93;;
10880;SDS011;5493;48.884;8.338;2023-02-16T05:49:33;10.30;;;6.93;;
10880;SDS011;5493;48.884;8.338;2023-02-16T05:52:00;10.43;;;7.17;;
10880;SDS011;5493;48.884;8.338;2023-02-16T05:54:26;12.90;;;7.47;;
10880;SDS011;5493;48.884;8.338;2023-02-16T05:56:53;17.20;;;9.80;;
10880;SDS011;5493;48.884;8.338;2023-02-16T05:59:19;16.53;;;9.77;;
10880;SDS011;5493;48.884;8.338;2023-02-16T06:01:47;13.70;;;8.20;;
10880;SDS011;5493;48.884;8.338;2023-02-16T06:04:13;12.60;;;7.20;;
10880;SDS011;5493;48.884;8.338;2023-02-16T06:06:40;13.17;;;7.67;;
10880;SDS011;5493;48.884;8.338;2023-02-16T06:09:07;13.97;;;8.63;;
10880;SDS011;5493;48.884;8.338;2023-02-16T06:11:34;14.10;;;8.00;;
10880;SDS011;5493;48.884;8.338;2023-02-16T06:14:02;16.30;;;9.27;;
10880;SDS011;5493;48.884;8.338;2023-02-16T06:16:30;14.47;;;8.37;;
10880;SDS011;5493;48.884;8.338;2023-02-16T06:18:59;15.70;;;9.17;;
10880;SDS011;5493;48.884;8.338;2023-02-16T06:21:26;15.97;;;8.90;;
10880;SDS011;5493;48.884;8.338;2023-02-16T06:23:53;13.93;;;8.73;;
10880;SDS011;5493;48.884;8.338;2023-02-16T06:26:20;16.43;;;8.87;;
10880;SDS011;5493;48.884;8.338;2023-02-16T06:28:47;13.87;;;7.50;;
10880;SDS011;5493;48.884;8.338;2023-02-16T06:31:13;14.40;;;9.20;;
10880;SDS011;5493;48.884;8.338;2023-02-16T06:33:39;13.20;;;8.37;;
10880;SDS011;5493;48.884;8.338;2023-02-16T06:36:08;12.97;;;7.67;;
10880;SDS011;5493;48.884;8.338;2023-02-16T06:38:35;14.27;;;7.47;;
10880;SDS011;5493;48.884;8.338;2023-02-16T06:41:02;11.87;;;8.03;;
10880;SDS011;5493;48.884;8.338;2023-02-16T06:43:29;11.03;;;7.30;;
10880;SDS011;5493;48.884;8.338;2023-02-16T06:45:56;13.70;;;8.40;;
10880;SDS011;5493;48.884;8.338;2023-02-16T06:48:22;12.90;;;7.87;;
10880;SDS011;5493;48.884;8.338;2023-02-16T06:50:49;9.60;;;6.63;;
10880;SDS011;5493;48.884;8.338;2023-02-16T06:53:17;14.90;;;7.47;;
10880;SDS011;5493;48.884;8.338;2023-02-16T06:55:44;12.20;;;7.40;;
10880;SDS011;5493;48.884;8.338;2023-02-16T06:58:11;9.60;;;6.10;;
10880;SDS011;5493;48.884;8.338;2023-02-16T07:00:38;11.40;;;6.47;;
10880;SDS011;5493;48.884;8.338;2023-02-16T07:03:04;9.77;;;6.73;;
10880;SDS011;5493;48.884;8.338;2023-02-16T07:05:31;10.40;;;6.63;;
10880;SDS011;5493;48.884;8.338;2023-02-16T07:07:57;11.63;;;7.37;;
10880;SDS011;5493;48.884;8.338;2023-02-16T07:10:25;9.60;;;6.70;;
10880;SDS011;5493;48.884;8.338;2023-02-16T07:12:51;11.70;;;7.17;;
10880;SDS011;5493;48.884;8.338;2023-02-16T07:15:18;11.40;;;7.13;;
10880;SDS011;5493;48.884;8.338;2023-02-16T07:17:45;11.93;;;6.80;;
10880;SDS011;5493;48.884;8.338;2023-02-16T07:20:11;14.70;;;7.63;;
10880;SDS011;5493;48.884;8.338;2023-02-16T07:22:38;11.67;;;7.10;;
10880;SDS011;5493;48.884;8.338;2023-02-16T07:25:05;13.63;;;8.07;;
10880;SDS011;5493;48.884;8.338;2023-02-16T09:05:57;21.43;;;13.63;;
10880;SDS011;5493;48.884;8.338;2023-02-16T09:08:27;14.87;;;9.80;;
10880;SDS011;5493;48.884;8.338;2023-02-16T09:10:53;19.10;;;10.50;;
10880;SDS011;5493;48.884;8.338;2023-02-16T09:13:20;15.77;;;10.27;;
10880;SDS011;5493;48.884;8.338;2023-02-16T09:15:47;17.03;;;10.27;;
10880;SDS011;5493;48.884;8.338;2023-02-16T09:18:14;16.43;;;10.20;;
10880;SDS011;5493;48.884;8.338;2023-02-16T09:20:41;13.97;;;9.93;;
10880;SDS011;5493;48.884;8.338;2023-02-16T09:23:10;15.93;;;9.77;;
10880;SDS011;5493;48.884;8.338;2023-02-16T09:25:37;16.63;;;9.90;;
10880;SDS011;5493;48.884;8.338;2023-02-16T09:28:05;17.53;;;10.23;;
10880;SDS011;5493;48.884;8.338;2023-02-16T09:30:33;14.70;;;10.57;;
10880;SDS011;5493;48.884;8.338;2023-02-16T09:33:03;14.00;;;8.83;;
10880;SDS011;5493;48.884;8.338;2023-02-16T09:35:30;15.10;;;8.90;;
10880;SDS011;5493;48.884;8.338;2023-02-16T09:37:57;13.90;;;8.97;;
10880;SDS011;5493;48.884;8.338;2023-02-16T09:40:25;14.17;;;10.13;;
10880;SDS011;5493;48.884;8.338;2023-02-16T09:42:55;17.93;;;10.53;;
10880;SDS011;5493;48.884;8.338;2023-02-16T09:45:28;17.77;;;11.17;;
10880;SDS011;5493;48.884;8.338;2023-02-16T09:47:59;17.80;;;11.10;;
10880;SDS011;5493;48.884;8.338;2023-02-16T09:50:26;18.37;;;11.83;;
10880;SDS011;5493;48.884;8.338;2023-02-16T09:52:56;16.73;;;10.97;;
10880;SDS011;5493;48.884;8.338;2023-02-16T09:55:27;17.80;;;11.53;;
10880;SDS011;5493;48.884;8.338;2023-02-16T09:58:04;18.40;;;11.63;;
10880;SDS011;5493;48.884;8.338;2023-02-16T10:00:46;19.73;;;12.17;;
10880;SDS011;5493;48.884;8.338;2023-02-16T10:03:19;16.10;;;11.33;;
10880;SDS011;5493;48.884;8.338;2023-02-16T10:06:00;15.43;;;10.43;;
10880;SDS011;5493;48.884;8.338;2023-02-16T10:08:32;17.13;;;11.00;;
10880;SDS011;5493;48.884;8.338;2023-02-16T10:11:06;16.50;;;10.77;;
10880;SDS011;5493;48.884;8.338;2023-02-16T10:13:53;17.53;;;11.17;;
10880;SDS011;5493;48.884;8.338;2023-02-16T10:16:25;18.23;;;11.67;;
10880;SDS011;5493;48.884;8.338;2023-02-16T10:18:57;23.23;;;13.57;;
10880;SDS011;5493;48.884;8.338;2023-02-16T10:21:26;15.63;;;10.80;;
10880;SDS011;5493;48.884;8.338;2023-02-16T10:23:56;21.20;;;13.17;;
10880;SDS011;5493;48.884;8.338;2023-02-16T10:26:29;16.90;;;11.57;;
10880;SDS011;5493;48.884;8.338;2023-02-16T10:29:01;17.30;;;11.87;;
10880;SDS011;5493;48.884;8.338;2023-02-16T10:31:32;20.53;;;11.10;;
10880;SDS011;5493;48.884;8.338;2023-02-16T10:34:15;17.03;;;12.03;;
10880;SDS011;5493;48.884;8.338;2023-02-16T10:36:58;18.70;;;10.80;;
10880;SDS011;5493;48.884;8.338;2023-02-16T10:39:34;19.77;;;11.87;;
10880;SDS011;5493;48.884;8.338;2023-02-16T10:42:12;19.53;;;10.73;;
10880;SDS011;5493;48.884;8.338;2023-02-16T10:44:47;22.07;;;11.40;;
10880;SDS011;5493;48.884;8.338;2023-02-16T10:47:24;17.67;;;11.43;;
10880;SDS011;5493;48.884;8.338;2023-02-16T10:49:57;21.87;;;11.87;;
10880;SDS011;5493;48.884;8.338;2023-02-16T10:52:24;22.37;;;12.37;;
10880;SDS011;5493;48.884;8.338;2023-02-16T10:54:53;21.70;;;12.43;;
10880;SDS011;5493;48.884;8.338;2023-02-16T10:57:23;21.73;;;12.40;;
10880;SDS011;5493;48.884;8.338;2023-02-16T10:59:51;25.50;;;12.87;;
10880;SDS011;5493;48.884;8.338;2023-02-16T11:02:22;23.13;;;11.83;;
10880;SDS011;5493;48.884;8.338;2023-02-16T11:04:50;19.53;;;11.90;;
10880;SDS011;5493;48.884;8.338;2023-02-16T11:07:19;17.73;;;10.77;;
10880;SDS011;5493;48.884;8.338;2023-02-16T11:09:48;15.87;;;9.83;;
10880;SDS011;5493;48.884;8.338;2023-02-16T11:12:22;14.17;;;10.33;;
10880;SDS011;5493;48.884;8.338;2023-02-16T11:14:53;14.97;;;10.30;;
10880;SDS011;5493;48.884;8.338;2023-02-16T11:17:22;18.63;;;10.57;;
10880;SDS011;5493;48.884;8.338;2023-02-16T11:19:51;12.97;;;8.80;;
10880;SDS011;5493;48.884;8.338;2023-02-16T11:22:25;12.37;;;9.57;;
10880;SDS011;5493;48.884;8.338;2023-02-16T11:24:53;15.17;;;10.07;;
10880;SDS011;5493;48.884;8.338;2023-02-16T11:27:20;14.47;;;9.40;;
10880;SDS011;5493;48.884;8.338;2023-02-16T11:29:50;15.77;;;9.67;;
10880;SDS011;5493;48.884;8.338;2023-02-16T11:32:39;13.73;;;9.67;;
10880;SDS011;5493;48.884;8.338;2023-02-16T11:35:07;14.07;;;9.63;;
10880;SDS011;5493;48.884;8.338;2023-02-16T11:37:34;13.63;;;9.47;;
10880;SDS011;5493;48.884;8.338;2023-02-16T11:40:02;15.83;;;9.67;;
10880;SDS011;5493;48.884;8.338;2023-02-16T11:42:33;14.33;;;9.30;;
10880;SDS011;5493;48.884;8.338;2023-02-16T11:45:06;12.23;;;8.93;;
10880;SDS011;5493;48.884;8.338;2023-02-16T11:47:34;16.83;;;9.47;;
10880;SDS011;5493;48.884;8.338;2023-02-16T11:50:17;13.17;;;9.50;;
10880;SDS011;5493;48.884;8.338;2023-02-16T11:52:47;13.87;;;9.13;;
10880;SDS011;5493;48.884;8.338;2023-02-16T11:55:19;12.17;;;9.33;;
10880;SDS011;5493;48.884;8.338;2023-02-16T11:57:48;13.23;;;8.70;;
10880;SDS011;5493;48.884;8.338;2023-02-16T12:00:15;12.47;;;8.80;;
10880;SDS011;5493;48.884;8.338;2023-02-16T12:02:48;10.37;;;8.17;;
10880;SDS011;5493;48.884;8.338;2023-02-16T12:05:40;15.23;;;8.60;;
10880;SDS011;5493;48.884;8.338;2023-02-16T12:08:21;10.63;;;8.33;;
10880;SDS011;5493;48.884;8.338;2023-02-16T12:11:00;11.03;;;8.63;;
10880;SDS011;5493;48.884;8.338;2023-02-16T12:13:37;10.93;;;8.30;;
10880;SDS011;5493;48.884;8.338;2023-02-16T12:16:17;11.80;;;8.23;;
10880;SDS011;5493;48.884;8.338;2023-02-16T12:18:55;10.63;;;8.47;;
10880;SDS011;5493;48.884;8.338;2023-02-16T12:21:35;12.33;;;8.40;;
10880;SDS011;5493;48.884;8.338;2023-02-16T12:24:08;10.73;;;8.70;;
10880;SDS011;5493;48.884;8.338;2023-02-16T12:26:46;11.97;;;8.40;;
10880;SDS011;5493;48.884;8.338;2023-02-16T12:29:22;10.73;;;8.10;;
10880;SDS011;5493;48.884;8.338;2023-02-16T12:31:58;11.50;;;8.83;;
10880;SDS011;5493;48.884;8.338;2023-02-16T12:34:48;13.07;;;8.80;;
10880;SDS011;5493;48.884;8.338;2023-02-16T12:37:28;10.30;;;8.00;;
10880;SDS011;5493;48.884;8.338;2023-02-16T12:40:02;13.30;;;8.33;;
10880;SDS011;5493;48.884;8.338;2023-02-16T12:42:40;11.23;;;7.73;;
10880;SDS011;5493;48.884;8.338;2023-02-16T12:45:15;11.90;;;8.63;;
10880;SDS011;5493;48.884;8.338;2023-02-16T12:47:44;13.83;;;8.57;;
10880;SDS011;5493;48.884;8.338;2023-02-16T12:50:18;12.67;;;8.50;;
10880;SDS011;5493;48.884;8.338;2023-02-16T12:52:48;15.07;;;9.20;;
10880;SDS011;5493;48.884;8.338;2023-02-16T12:55:20;13.20;;;9.47;;
10880;SDS011;5493;48.884;8.338;2023-02-16T12:57:53;12.97;;;9.17;;
10880;SDS011;5493;48.884;8.338;2023-02-16T13:00:28;14.00;;;9.70;;
10880;SDS011;5493;48.884;8.338;2023-02-16T13:03:03;14.40;;;9.77;;
10880;SDS011;5493;48.884;8.338;2023-02-16T13:05:40;12.43;;;8.10;;
10880;SDS011;5493;48.884;8.338;2023-02-16T13:08:11;11.97;;;8.10;;
10880;SDS011;5493;48.884;8.338;2023-02-16T13:10:48;11.00;;;8.50;;
10880;SDS011;5493;48.884;8.338;2023-02-16T13:13:20;9.90;;;7.53;;
10880;SDS011;5493;48.884;8.338;2023-02-16T13:15:50;10.27;;;7.17;;
10880;SDS011;5493;48.884;8.338;2023-02-16T13:18:23;10.00;;;7.60;;
10880;SDS011;5493;48.884;8.338;2023-02-16T13:20:55;10.50;;;7.30;;
10880;SDS011;5493;48.884;8.338;2023-02-16T13:26:32;10.03;;;6.93;;
10880;SDS011;5493;48.884;8.338;2023-02-16T13:32:40;10.07;;;7.33;;
10880;SDS011;5493;48.884;8.338;2023-02-16T13:35:21;10.70;;;7.20;;
10880;SDS011;5493;48.884;8.338;2023-02-16T13:38:04;8.83;;;6.87;;
10880;SDS011;5493;48.884;8.338;2023-02-16T13:41:02;11.37;;;7.07;;
10880;SDS011;5493;48.884;8.338;2023-02-16T13:43:38;11.33;;;7.33;;
10880;SDS011;5493;48.884;8.338;2023-02-16T13:46:11;9.87;;;6.87;;
10880;SDS011;5493;48.884;8.338;2023-02-16T13:48:44;9.23;;;6.23;;
10880;SDS011;5493;48.884;8.338;2023-02-16T13:51:14;6.47;;;3.97;;
10880;SDS011;5493;48.884;8.338;2023-02-16T13:53:48;9.47;;;7.03;;
10880;SDS011;5493;48.884;8.338;2023-02-16T13:56:20;8.60;;;6.10;;
10880;SDS011;5493;48.884;8.338;2023-02-16T13:58:56;6.50;;;4.90;;
10880;SDS011;5493;48.884;8.338;2023-02-16T14:01:35;5.23;;;3.33;;
10880;SDS011;5493;48.884;8.338;2023-02-16T14:04:04;6.27;;;4.57;;
10880;SDS011;5493;48.884;8.338;2023-02-16T14:06:32;9.33;;;4.80;;
10880;SDS011;5493;48.884;8.338;2023-02-16T14:12:16;6.87;;;4.60;;
10880;SDS011;5493;48.884;8.338;2023-02-16T14:14:54;5.50;;;3.70;;
10880;SDS011;5493;48.884;8.338;2023-02-16T14:17:27;6.73;;;4.53;;
10880;SDS011;5493;48.884;8.338;2023-02-16T14:19:56;5.23;;;3.73;;
10880;SDS011;5493;48.884;8.338;2023-02-16T14:22:34;5.63;;;3.80;;
10880;SDS011;5493;48.884;8.338;2023-02-16T14:25:27;4.60;;;3.60;;
10880;SDS011;5493;48.884;8.338;2023-02-16T14:27:58;6.70;;;4.47;;
10880;SDS011;5493;48.884;8.338;2023-02-16T14:30:27;7.13;;;4.43;;
10880;SDS011;5493;48.884;8.338;2023-02-16T14:32:58;6.00;;;4.17;;
10880;SDS011;5493;48.884;8.338;2023-02-16T14:35:30;6.30;;;4.40;;
10880;SDS011;5493;48.884;8.338;2023-02-16T14:38:00;6.90;;;4.47;;
10880;SDS011;5493;48.884;8.338;2023-02-16T14:40:38;7.27;;;4.10;;
10880;SDS011;5493;48.884;8.338;2023-02-16T14:43:22;5.73;;;4.03;;
10880;SDS011;5493;48.884;8.338;2023-02-16T14:49:03;8.07;;;4.90;;
10880;SDS011;5493;48.884;8.338;2023-02-16T14:51:55;8.70;;;5.30;;
10880;SDS011;5493;48.884;8.338;2023-02-16T14:57:43;10.27;;;6.00;;
10880;SDS011;5493;48.884;8.338;2023-02-16T15:00:20;11.73;;;6.90;;
10880;SDS011;5493;48.884;8.338;2023-02-16T15:02:55;10.07;;;5.87;;
10880;SDS011;5493;48.884;8.338;2023-02-16T15:05:24;7.67;;;5.43;;
10880;SDS011;5493;48.884;8.338;2023-02-16T15:07:56;7.77;;;4.97;;
10880;SDS011;5493;48.884;8.338;2023-02-16T15:10:28;7.83;;;5.07;;
10880;SDS011;5493;48.884;8.338;2023-02-16T15:12:56;8.43;;;4.67;;
10880;SDS011;5493;48.884;8.338;2023-02-16T15:15:27;6.70;;;4.77;;
10880;SDS011;5493;48.884;8.338;2023-02-16T15:18:04;8.53;;;4.83;;
10880;SDS011;5493;48.884;8.338;2023-02-16T15:20:32;8.97;;;5.07;;
10880;SDS011;5493;48.884;8.338;2023-02-16T15:23:02;6.03;;;4.50;;
10880;SDS011;5493;48.884;8.338;2023-02-16T15:25:32;7.20;;;4.83;;
10880;SDS011;5493;48.884;8.338;2023-02-16T15:28:00;7.50;;;5.20;;
10880;SDS011;5493;48.884;8.338;2023-02-16T15:30:31;7.27;;;4.73;;
10880;SDS011;5493;48.884;8.338;2023-02-16T15:33:00;12.37;;;6.40;;
10880;SDS011;5493;48.884;8.338;2023-02-16T15:35:31;22.67;;;13.87;;
10880;SDS011;5493;48.884;8.338;2023-02-16T15:38:18;17.33;;;10.47;;
10880;SDS011;5493;48.884;8.338;2023-02-16T15:40:46;12.50;;;9.27;;
10880;SDS011;5493;48.884;8.338;2023-02-16T15:43:17;7.33;;;4.30;;
10880;SDS011;5493;48.884;8.338;2023-02-16T15:45:53;6.90;;;4.53;;
10880;SDS011;5493;48.884;8.338;2023-02-16T15:48:21;6.20;;;4.63;;
10880;SDS011;5493;48.884;8.338;2023-02-16T15:50:51;7.77;;;4.80;;
10880;SDS011;5493;48.884;8.338;2023-02-16T15:53:21;9.97;;;4.97;;
10880;SDS011;5493;48.884;8.338;2023-02-16T15:55:52;7.57;;;4.70;;
10880;SDS011;5493;48.884;8.338;2023-02-16T15:58:20;10.33;;;4.93;;
10880;SDS011;5493;48.884;8.338;2023-02-16T16:00:46;10.20;;;5.10;;
10880;SDS011;5493;48.884;8.338;2023-02-16T16:03:15;7.17;;;4.97;;
10880;SDS011;5493;48.884;8.338;2023-02-16T16:05:52;7.20;;;5.03;;
10880;SDS011;5493;48.884;8.338;2023-02-16T16:08:24;6.63;;;4.53;;
10880;SDS011;5493;48.884;8.338;2023-02-16T16:10:53;12.60;;;5.37;;
10880;SDS011;5493;48.884;8.338;2023-02-16T16:13:22;7.87;;;5.47;;
10880;SDS011;5493;48.884;8.338;2023-02-16T16:15:50;12.47;;;6.20;;
10880;SDS011;5493;48.884;8.338;2023-02-16T16:18:41;8.80;;;5.90;;
10880;SDS011;5493;48.884;8.338;2023-02-16T16:21:11;7.30;;;5.10;;
10880;SDS011;5493;48.884;8.338;2023-02-16T16:23:39;6.67;;;5.13;;
10880;SDS011;5493;48.884;8.338;2023-02-16T16:26:15;12.20;;;5.63;;
10880;SDS011;5493;48.884;8.338;2023-02-16T16:28:43;8.30;;;4.77;;
10880;SDS011;5493;48.884;8.338;2023-02-16T16:31:10;9.47;;;5.53;;
10880;SDS011;5493;48.884;8.338;2023-02-16T16:33:52;8.03;;;5.07;;
10880;SDS011;5493;48.884;8.338;2023-02-16T16:36:20;9.07;;;6.53;;
10880;SDS011;5493;48.884;8.338;2023-02-16T16:39:06;13.97;;;9.13;;
10880;SDS011;5493;48.884;8.338;2023-02-16T16:41:35;20.87;;;11.57;;
10880;SDS011;5493;48.884;8.338;2023-02-16T16:44:04;13.17;;;8.83;;
10880;SDS011;5493;48.884;8.338;2023-02-16T16:46:36;12.50;;;7.97;;
10880;SDS011;5493;48.884;8.338;2023-02-16T16:49:10;12.77;;;7.50;;
10880;SDS011;5493;48.884;8.338;2023-02-16T16:51:41;14.33;;;7.40;;
10880;SDS011;5493;48.884;8.338;2023-02-16T16:54:09;11.53;;;6.53;;
10880;SDS011;5493;48.884;8.338;2023-02-16T16:56:37;10.53;;;7.50;;
10880;SDS011;5493;48.884;8.338;2023-02-16T16:59:05;13.17;;;7.30;;
10880;SDS011;5493;48.884;8.338;2023-02-16T17:01:32;13.03;;;7.60;;
10880;SDS011;5493;48.884;8.338;2023-02-16T17:03:59;13.43;;;7.53;;
10880;SDS011;5493;48.884;8.338;2023-02-16T17:06:27;10.83;;;7.60;;
10880;SDS011;5493;48.884;8.338;2023-02-16T17:08:54;14.50;;;6.30;;
10880;SDS011;5493;48.884;8.338;2023-02-16T17:11:23;11.57;;;6.80;;